sensor_id;sensor_type;location;lat;lon;timestamp;temperature;humidity
15949;DHT22;14848;50.954;6.642;2022-09-12T00:02:21;12.90;99.90
15949;DHT22;14848;50.954;6.642;2022-09-12T00:04:46;12.90;99.90
15949;DHT22;14848;50.954;6.642;2022-09-12T00:07:12;12.80;99.90
15949;DHT22;14848;50.954;6.642;2022-09-12T00:09:37;12.80;99.90
15949;DHT22;14848;50.954;6.642;2022-09-12T00:12:03;12.70;99.90
15949;DHT22;14848;50.954;6.642;2022-09-12T00:14:29;12.70;99.90
15949;DHT22;14848;50.954;6.642;2022-09-12T00:16:58;12.80;99.90
15949;DHT22;14848;50.954;6.642;2022-09-12T00:19:25;12.70;99.90
15949;DHT22;14848;50.954;6.642;2022-09-12T00:21:51;12.70;99.90
15949;DHT22;14848;50.954;6.642;2022-09-12T00:24:16;12.60;99.90
15949;DHT22;14848;50.954;6.642;2022-09-12T00:26:42;12.70;99.90
15949;DHT22;14848;50.954;6.642;2022-09-12T00:29:07;12.60;99.90
15949;DHT22;14848;50.954;6.642;2022-09-12T00:31:34;12.60;99.90
15949;DHT22;14848;50.954;6.642;2022-09-12T00:33:59;12.70;99.90
15949;DHT22;14848;50.954;6.642;2022-09-12T00:36:26;12.70;99.90
15949;DHT22;14848;50.954;6.642;2022-09-12T00:38:52;12.70;99.90
15949;DHT22;14848;50.954;6.642;2022-09-12T00:41:20;12.70;99.90
15949;DHT22;14848;50.954;6.642;2022-09-12T00:43:46;12.60;99.90
15949;DHT22;14848;50.954;6.642;2022-09-12T00:46:14;12.60;99.90
15949;DHT22;14848;50.954;6.642;2022-09-12T00:48:43;12.50;99.90
15949;DHT22;14848;50.954;6.642;2022-09-12T00:51:10;12.50;99.90
15949;DHT22;14848;50.954;6.642;2022-09-12T00:53:36;12.50;99.90
15949;DHT22;14848;50.954;6.642;2022-09-12T00:56:02;12.50;99.90
15949;DHT22;14848;50.954;6.642;2022-09-12T00:58:29;12.60;99.90
15949;DHT22;14848;50.954;6.642;2022-09-12T01:00:57;12.50;99.90
15949;DHT22;14848;50.954;6.642;2022-09-12T01:03:22;12.50;99.90
15949;DHT22;14848;50.954;6.642;2022-09-12T01:05:56;12.40;99.90
15949;DHT22;14848;50.954;6.642;2022-09-12T01:08:23;12.40;99.90
15949;DHT22;14848;50.954;6.642;2022-09-12T01:10:50;12.40;99.90
15949;DHT22;14848;50.954;6.642;2022-09-12T01:13:16;12.40;99.90
15949;DHT22;14848;50.954;6.642;2022-09-12T01:15:41;12.50;99.90
15949;DHT22;14848;50.954;6.642;2022-09-12T01:18:09;12.50;99.90
15949;DHT22;14848;50.954;6.642;2022-09-12T01:20:43;12.50;99.90
15949;DHT22;14848;50.954;6.642;2022-09-12T01:23:22;12.50;99.90
15949;DHT22;14848;50.954;6.642;2022-09-12T01:30:54;12.50;99.90
15949;DHT22;14848;50.954;6.642;2022-09-12T01:33:26;12.60;99.90
15949;DHT22;14848;50.954;6.642;2022-09-12T01:43:36;12.60;99.90
15949;DHT22;14848;50.954;6.642;2022-09-12T01:48:59;12.60;99.90
15949;DHT22;14848;50.954;6.642;2022-09-12T01:51:27;12.60;99.90
15949;DHT22;14848;50.954;6.642;2022-09-12T01:54:09;12.60;99.90
15949;DHT22;14848;50.954;6.642;2022-09-12T01:56:37;12.60;99.90
15949;DHT22;14848;50.954;6.642;2022-09-12T01:59:04;12.60;99.90
15949;DHT22;14848;50.954;6.642;2022-09-12T02:01:32;12.60;99.90
15949;DHT22;14848;50.954;6.642;2022-09-12T02:04:02;12.50;99.90
15949;DHT22;14848;50.954;6.642;2022-09-12T02:06:31;12.50;99.90
15949;DHT22;14848;50.954;6.642;2022-09-12T02:09:02;12.60;99.90
15949;DHT22;14848;50.954;6.642;2022-09-12T02:11:30;12.60;99.90
15949;DHT22;14848;50.954;6.642;2022-09-12T02:14:05;12.70;99.90
15949;DHT22;14848;50.954;6.642;2022-09-12T02:16:42;12.70;99.90
15949;DHT22;14848;50.954;6.642;2022-09-12T02:19:10;12.70;99.90
15949;DHT22;14848;50.954;6.642;2022-09-12T02:21:37;12.70;99.90
15949;DHT22;14848;50.954;6.642;2022-09-12T02:24:04;12.70;99.90
15949;DHT22;14848;50.954;6.642;2022-09-12T02:26:32;12.60;99.90
15949;DHT22;14848;50.954;6.642;2022-09-12T02:28:59;12.60;99.90
15949;DHT22;14848;50.954;6.642;2022-09-12T02:31:26;12.60;99.90
15949;DHT22;14848;50.954;6.642;2022-09-12T02:34:08;12.50;99.90
15949;DHT22;14848;50.954;6.642;2022-09-12T02:39:18;12.50;99.90
15949;DHT22;14848;50.954;6.642;2022-09-12T02:41:54;12.60;99.90
15949;DHT22;14848;50.954;6.642;2022-09-12T02:44:23;12.60;99.90
15949;DHT22;14848;50.954;6.642;2022-09-12T02:46:50;12.60;99.90
15949;DHT22;14848;50.954;6.642;2022-09-12T02:49:16;12.60;99.90
15949;DHT22;14848;50.954;6.642;2022-09-12T02:51:42;12.60;99.90
15949;DHT22;14848;50.954;6.642;2022-09-12T02:54:09;12.60;99.90
15949;DHT22;14848;50.954;6.642;2022-09-12T02:56:39;12.60;99.90
15949;DHT22;14848;50.954;6.642;2022-09-12T02:59:05;12.50;99.90
15949;DHT22;14848;50.954;6.642;2022-09-12T03:09:26;12.40;99.90
15949;DHT22;14848;50.954;6.642;2022-09-12T03:12:07;13.00;99.90
15949;DHT22;14848;50.954;6.642;2022-09-12T03:22:30;12.40;99.90
15949;DHT22;14848;50.954;6.642;2022-09-12T03:28:00;12.40;99.90
15949;DHT22;14848;50.954;6.642;2022-09-12T03:30:30;12.40;99.90
15949;DHT22;14848;50.954;6.642;2022-09-12T03:32:56;12.30;99.90
15949;DHT22;14848;50.954;6.642;2022-09-12T03:35:22;12.40;99.90
15949;DHT22;14848;50.954;6.642;2022-09-12T03:37:48;12.30;99.90
15949;DHT22;14848;50.954;6.642;2022-09-12T03:40:14;12.30;99.90
15949;DHT22;14848;50.954;6.642;2022-09-12T03:42:40;12.20;99.90
15949;DHT22;14848;50.954;6.642;2022-09-12T03:45:06;12.20;99.90
15949;DHT22;14848;50.954;6.642;2022-09-12T03:47:31;12.20;99.90
15949;DHT22;14848;50.954;6.642;2022-09-12T03:49:57;12.10;99.90
15949;DHT22;14848;50.954;6.642;2022-09-12T03:52:22;12.10;99.90
15949;DHT22;14848;50.954;6.642;2022-09-12T03:54:48;12.10;99.90
15949;DHT22;14848;50.954;6.642;2022-09-12T03:57:13;12.10;99.90
15949;DHT22;14848;50.954;6.642;2022-09-12T03:59:39;12.20;99.90
15949;DHT22;14848;50.954;6.642;2022-09-12T04:02:05;12.20;99.90
15949;DHT22;14848;50.954;6.642;2022-09-12T04:04:30;12.20;99.90
15949;DHT22;14848;50.954;6.642;2022-09-12T04:06:56;12.20;99.90
15949;DHT22;14848;50.954;6.642;2022-09-12T04:09:22;12.20;99.90
15949;DHT22;14848;50.954;6.642;2022-09-12T04:11:47;12.20;99.90
15949;DHT22;14848;50.954;6.642;2022-09-12T04:14:13;12.20;99.90
15949;DHT22;14848;50.954;6.642;2022-09-12T04:16:38;12.20;99.90
15949;DHT22;14848;50.954;6.642;2022-09-12T04:19:04;12.20;99.90
15949;DHT22;14848;50.954;6.642;2022-09-12T04:21:29;12.20;99.90
15949;DHT22;14848;50.954;6.642;2022-09-12T04:23:55;12.20;99.90
15949;DHT22;14848;50.954;6.642;2022-09-12T04:26:20;12.20;99.90
15949;DHT22;14848;50.954;6.642;2022-09-12T04:28:46;12.20;99.90
15949;DHT22;14848;50.954;6.642;2022-09-12T04:31:16;12.20;99.90
15949;DHT22;14848;50.954;6.642;2022-09-12T04:33:43;12.20;99.90
15949;DHT22;14848;50.954;6.642;2022-09-12T04:36:10;12.20;99.90
15949;DHT22;14848;50.954;6.642;2022-09-12T04:38:36;12.10;99.90
15949;DHT22;14848;50.954;6.642;2022-09-12T04:43:36;12.10;99.90
15949;DHT22;14848;50.954;6.642;2022-09-12T04:46:05;12.10;99.90
15949;DHT22;14848;50.954;6.642;2022-09-12T04:48:30;12.10;99.90
15949;DHT22;14848;50.954;6.642;2022-09-12T04:51:04;12.10;99.90
15949;DHT22;14848;50.954;6.642;2022-09-12T04:53:30;12.10;99.90
15949;DHT22;14848;50.954;6.642;2022-09-12T04:56:00;12.20;99.90
15949;DHT22;14848;50.954;6.642;2022-09-12T04:58:25;12.20;99.90
15949;DHT22;14848;50.954;6.642;2022-09-12T05:00:51;12.30;99.90
15949;DHT22;14848;50.954;6.642;2022-09-12T05:03:16;12.30;99.90
15949;DHT22;14848;50.954;6.642;2022-09-12T05:05:42;12.30;99.90
15949;DHT22;14848;50.954;6.642;2022-09-12T05:08:08;12.40;99.90
15949;DHT22;14848;50.954;6.642;2022-09-12T05:10:33;12.40;99.90
15949;DHT22;14848;50.954;6.642;2022-09-12T05:12:59;12.50;99.90
15949;DHT22;14848;50.954;6.642;2022-09-12T05:15:24;12.40;99.90
15949;DHT22;14848;50.954;6.642;2022-09-12T05:17:50;12.50;99.90
15949;DHT22;14848;50.954;6.642;2022-09-12T05:20:15;12.50;99.90
15949;DHT22;14848;50.954;6.642;2022-09-12T05:22:41;12.50;99.90
15949;DHT22;14848;50.954;6.642;2022-09-12T05:25:07;12.60;99.90
15949;DHT22;14848;50.954;6.642;2022-09-12T05:27:33;12.70;99.90
15949;DHT22;14848;50.954;6.642;2022-09-12T05:29:58;12.80;99.90
15949;DHT22;14848;50.954;6.642;2022-09-12T05:32:24;13.00;99.90
15949;DHT22;14848;50.954;6.642;2022-09-12T05:34:49;13.20;99.90
15949;DHT22;14848;50.954;6.642;2022-09-12T05:37:15;13.20;99.90
15949;DHT22;14848;50.954;6.642;2022-09-12T05:39:41;13.60;99.90
15949;DHT22;14848;50.954;6.642;2022-09-12T05:42:07;14.10;99.90
15949;DHT22;14848;50.954;6.642;2022-09-12T05:49:25;15.50;99.90
15949;DHT22;14848;50.954;6.642;2022-09-12T05:51:50;16.10;99.90
15949;DHT22;14848;50.954;6.642;2022-09-12T05:54:17;16.70;99.90
15949;DHT22;14848;50.954;6.642;2022-09-12T05:56:45;17.10;99.90
15949;DHT22;14848;50.954;6.642;2022-09-12T05:59:17;17.30;99.90
15949;DHT22;14848;50.954;6.642;2022-09-12T06:01:43;17.30;99.90
15949;DHT22;14848;50.954;6.642;2022-09-12T06:04:09;16.20;99.90
15949;DHT22;14848;50.954;6.642;2022-09-12T06:06:36;18.10;99.90
15949;DHT22;14848;50.954;6.642;2022-09-12T06:09:03;18.50;99.90
15949;DHT22;14848;50.954;6.642;2022-09-12T06:11:29;16.70;99.90
15949;DHT22;14848;50.954;6.642;2022-09-12T06:13:56;17.30;99.90
15949;DHT22;14848;50.954;6.642;2022-09-12T06:16:23;16.10;99.90
15949;DHT22;14848;50.954;6.642;2022-09-12T06:18:51;17.60;99.90
15949;DHT22;14848;50.954;6.642;2022-09-12T06:21:17;17.80;99.90
15949;DHT22;14848;50.954;6.642;2022-09-12T06:33:34;19.60;99.90
15949;DHT22;14848;50.954;6.642;2022-09-12T06:36:04;19.40;99.90
15949;DHT22;14848;50.954;6.642;2022-09-12T06:38:31;19.20;99.90
15949;DHT22;14848;50.954;6.642;2022-09-12T06:40:57;19.10;99.90
15949;DHT22;14848;50.954;6.642;2022-09-12T06:43:23;19.10;99.90
15949;DHT22;14848;50.954;6.642;2022-09-12T07:02:55;17.80;99.90
15949;DHT22;14848;50.954;6.642;2022-09-12T07:05:21;17.70;99.90
15949;DHT22;14848;50.954;6.642;2022-09-12T07:07:47;17.70;99.90
15949;DHT22;14848;50.954;6.642;2022-09-12T07:34:37;17.20;99.90
15949;DHT22;14848;50.954;6.642;2022-09-12T07:41:56;17.90;99.90
15949;DHT22;14848;50.954;6.642;2022-09-12T07:49:19;18.30;99.90
15949;DHT22;14848;50.954;6.642;2022-09-12T07:51:47;18.10;99.90
15949;DHT22;14848;50.954;6.642;2022-09-12T07:56:39;18.30;99.90
15949;DHT22;14848;50.954;6.642;2022-09-12T07:59:05;18.30;99.90
15949;DHT22;14848;50.954;6.642;2022-09-12T08:01:31;18.30;99.90
15949;DHT22;14848;50.954;6.642;2022-09-12T08:03:58;18.60;99.90
15949;DHT22;14848;50.954;6.642;2022-09-12T08:06:25;18.10;99.90
15949;DHT22;14848;50.954;6.642;2022-09-12T08:08:54;18.40;99.90
15949;DHT22;14848;50.954;6.642;2022-09-12T08:11:21;18.40;99.90
15949;DHT22;14848;50.954;6.642;2022-09-12T08:16:18;18.60;99.90
15949;DHT22;14848;50.954;6.642;2022-09-12T08:18:45;18.80;99.90
15949;DHT22;14848;50.954;6.642;2022-09-12T08:21:14;18.80;99.90
15949;DHT22;14848;50.954;6.642;2022-09-12T08:23:40;18.90;99.90
15949;DHT22;14848;50.954;6.642;2022-09-12T08:26:07;18.80;99.90
15949;DHT22;14848;50.954;6.642;2022-09-12T08:28:34;18.40;99.90
15949;DHT22;14848;50.954;6.642;2022-09-12T08:31:05;18.90;99.90
15949;DHT22;14848;50.954;6.642;2022-09-12T08:33:32;18.80;99.90
15949;DHT22;14848;50.954;6.642;2022-09-12T08:36:09;18.50;99.90
15949;DHT22;14848;50.954;6.642;2022-09-12T08:44:00;18.80;99.90
15949;DHT22;14848;50.954;6.642;2022-09-12T08:48:56;18.90;99.90
15949;DHT22;14848;50.954;6.642;2022-09-12T09:22:15;19.80;99.90
15949;DHT22;14848;50.954;6.642;2022-09-12T09:24:57;20.60;99.90
15949;DHT22;14848;50.954;6.642;2022-09-12T09:27:40;20.20;99.90
15949;DHT22;14848;50.954;6.642;2022-09-12T09:32:40;20.20;99.90
15949;DHT22;14848;50.954;6.642;2022-09-12T09:38:35;20.70;99.90
15949;DHT22;14848;50.954;6.642;2022-09-12T09:43:36;20.90;99.90
15949;DHT22;14848;50.954;6.642;2022-09-12T09:46:02;21.00;99.90
15949;DHT22;14848;50.954;6.642;2022-09-12T09:48:36;21.10;99.90
15949;DHT22;14848;50.954;6.642;2022-09-12T09:51:04;21.20;99.90
15949;DHT22;14848;50.954;6.642;2022-09-12T09:59:14;21.40;99.90
15949;DHT22;14848;50.954;6.642;2022-09-12T10:01:49;21.50;99.90
15949;DHT22;14848;50.954;6.642;2022-09-12T10:06:43;21.70;99.90
15949;DHT22;14848;50.954;6.642;2022-09-12T10:09:19;21.70;99.90
15949;DHT22;14848;50.954;6.642;2022-09-12T10:11:45;21.80;99.90
15949;DHT22;14848;50.954;6.642;2022-09-12T10:16:57;21.80;99.90
15949;DHT22;14848;50.954;6.642;2022-09-12T10:19:35;21.80;99.90
15949;DHT22;14848;50.954;6.642;2022-09-12T10:30:06;21.90;99.90
15949;DHT22;14848;50.954;6.642;2022-09-12T10:35:40;22.00;99.90
15949;DHT22;14848;50.954;6.642;2022-09-12T10:40:39;22.20;99.90
15949;DHT22;14848;50.954;6.642;2022-09-12T10:43:36;22.30;99.90
15949;DHT22;14848;50.954;6.642;2022-09-12T10:48:41;22.40;99.90
15949;DHT22;14848;50.954;6.642;2022-09-12T10:53:57;22.70;99.90
15949;DHT22;14848;50.954;6.642;2022-09-12T10:56:30;22.70;99.90
15949;DHT22;14848;50.954;6.642;2022-09-12T10:59:08;22.70;99.90
15949;DHT22;14848;50.954;6.642;2022-09-12T11:01:46;22.70;99.90
15949;DHT22;14848;50.954;6.642;2022-09-12T11:18:04;23.10;99.90
15949;DHT22;14848;50.954;6.642;2022-09-12T11:21:06;23.10;99.90
15949;DHT22;14848;50.954;6.642;2022-09-12T11:26:15;23.20;99.90
15949;DHT22;14848;50.954;6.642;2022-09-12T11:41:17;23.50;99.90
15949;DHT22;14848;50.954;6.642;2022-09-12T11:43:50;23.60;99.90
15949;DHT22;14848;50.954;6.642;2022-09-12T11:46:35;23.70;99.90
15949;DHT22;14848;50.954;6.642;2022-09-12T11:54:42;23.60;99.90
15949;DHT22;14848;50.954;6.642;2022-09-12T11:59:57;23.70;99.90
15949;DHT22;14848;50.954;6.642;2022-09-12T12:02:30;23.70;99.90
15949;DHT22;14848;50.954;6.642;2022-09-12T12:07:34;23.70;99.90
15949;DHT22;14848;50.954;6.642;2022-09-12T12:10:03;23.70;99.90
15949;DHT22;14848;50.954;6.642;2022-09-12T12:14:56;23.70;99.90
15949;DHT22;14848;50.954;6.642;2022-09-12T12:17:24;23.90;99.90
15949;DHT22;14848;50.954;6.642;2022-09-12T12:20:02;23.90;99.90
15949;DHT22;14848;50.954;6.642;2022-09-12T12:22:28;24.10;99.90
15949;DHT22;14848;50.954;6.642;2022-09-12T12:25:21;24.10;99.90
15949;DHT22;14848;50.954;6.642;2022-09-12T12:27:59;24.40;99.90
15949;DHT22;14848;50.954;6.642;2022-09-12T12:36:02;24.40;99.90
15949;DHT22;14848;50.954;6.642;2022-09-12T12:38:33;24.70;99.90
15949;DHT22;14848;50.954;6.642;2022-09-12T12:46:13;24.90;99.90
15949;DHT22;14848;50.954;6.642;2022-09-12T12:49:16;25.00;99.90
15949;DHT22;14848;50.954;6.642;2022-09-12T12:51:54;24.80;99.90
15949;DHT22;14848;50.954;6.642;2022-09-12T12:54:33;24.80;99.90
15949;DHT22;14848;50.954;6.642;2022-09-12T13:00:06;25.00;99.90
15949;DHT22;14848;50.954;6.642;2022-09-12T13:02:55;25.00;99.90
15949;DHT22;14848;50.954;6.642;2022-09-12T13:05:23;24.90;99.90
15949;DHT22;14848;50.954;6.642;2022-09-12T13:44:02;25.60;99.90
15949;DHT22;14848;50.954;6.642;2022-09-12T13:46:33;25.50;99.90
15949;DHT22;14848;50.954;6.642;2022-09-12T13:49:04;25.50;99.90
15949;DHT22;14848;50.954;6.642;2022-09-12T13:51:31;25.50;99.90
15949;DHT22;14848;50.954;6.642;2022-09-12T13:54:03;25.50;99.90
15949;DHT22;14848;50.954;6.642;2022-09-12T13:56:30;25.40;99.90
15949;DHT22;14848;50.954;6.642;2022-09-12T13:58:58;25.50;99.90
15949;DHT22;14848;50.954;6.642;2022-09-12T14:01:45;25.50;99.90
15949;DHT22;14848;50.954;6.642;2022-09-12T14:04:21;25.60;99.90
15949;DHT22;14848;50.954;6.642;2022-09-12T14:07:13;25.70;99.90
15949;DHT22;14848;50.954;6.642;2022-09-12T14:09:42;25.80;99.90
15949;DHT22;14848;50.954;6.642;2022-09-12T14:12:19;25.80;99.90
15949;DHT22;14848;50.954;6.642;2022-09-12T14:14:50;25.80;99.90
15949;DHT22;14848;50.954;6.642;2022-09-12T14:17:32;26.00;99.90
15949;DHT22;14848;50.954;6.642;2022-09-12T14:20:01;26.00;99.90
15949;DHT22;14848;50.954;6.642;2022-09-12T14:22:28;26.00;99.90
15949;DHT22;14848;50.954;6.642;2022-09-12T14:24:55;26.00;99.90
15949;DHT22;14848;50.954;6.642;2022-09-12T14:27:28;26.00;99.90
15949;DHT22;14848;50.954;6.642;2022-09-12T14:30:13;26.00;99.90
15949;DHT22;14848;50.954;6.642;2022-09-12T14:33:04;26.00;99.90
15949;DHT22;14848;50.954;6.642;2022-09-12T14:35:30;26.00;99.90
15949;DHT22;14848;50.954;6.642;2022-09-12T14:40:45;25.90;99.90
15949;DHT22;14848;50.954;6.642;2022-09-12T14:43:30;26.00;99.90
15949;DHT22;14848;50.954;6.642;2022-09-12T14:46:13;26.00;99.90
15949;DHT22;14848;50.954;6.642;2022-09-12T14:48:45;26.10;99.90
15949;DHT22;14848;50.954;6.642;2022-09-12T14:51:22;26.10;99.90
15949;DHT22;14848;50.954;6.642;2022-09-12T14:53:49;26.10;99.90
15949;DHT22;14848;50.954;6.642;2022-09-12T14:56:16;26.10;99.90
15949;DHT22;14848;50.954;6.642;2022-09-12T14:58:44;26.00;99.90
15949;DHT22;14848;50.954;6.642;2022-09-12T15:06:05;26.10;99.90
15949;DHT22;14848;50.954;6.642;2022-09-12T15:08:43;26.10;99.90
15949;DHT22;14848;50.954;6.642;2022-09-12T15:11:08;26.00;99.90
15949;DHT22;14848;50.954;6.642;2022-09-12T15:13:39;26.00;99.90
15949;DHT22;14848;50.954;6.642;2022-09-12T15:16:08;26.00;99.90
15949;DHT22;14848;50.954;6.642;2022-09-12T15:18:34;26.00;99.90
15949;DHT22;14848;50.954;6.642;2022-09-12T15:21:03;26.10;99.90
15949;DHT22;14848;50.954;6.642;2022-09-12T15:23:43;26.20;99.90
15949;DHT22;14848;50.954;6.642;2022-09-12T15:26:15;26.20;99.90
15949;DHT22;14848;50.954;6.642;2022-09-12T15:28:42;26.10;99.90
15949;DHT22;14848;50.954;6.642;2022-09-12T15:31:30;26.10;99.90
15949;DHT22;14848;50.954;6.642;2022-09-12T15:33:58;26.00;99.90
15949;DHT22;14848;50.954;6.642;2022-09-12T15:36:25;26.00;99.90
15949;DHT22;14848;50.954;6.642;2022-09-12T15:38:51;25.90;99.90
15949;DHT22;14848;50.954;6.642;2022-09-12T15:41:37;26.00;99.90
15949;DHT22;14848;50.954;6.642;2022-09-12T15:44:04;26.00;99.90
15949;DHT22;14848;50.954;6.642;2022-09-12T15:46:30;26.10;99.90
15949;DHT22;14848;50.954;6.642;2022-09-12T15:48:56;26.10;99.90
15949;DHT22;14848;50.954;6.642;2022-09-12T15:51:21;25.90;99.90
15949;DHT22;14848;50.954;6.642;2022-09-12T15:53:49;25.80;99.90
15949;DHT22;14848;50.954;6.642;2022-09-12T15:56:16;25.90;99.90
15949;DHT22;14848;50.954;6.642;2022-09-12T15:58:42;25.90;99.90
15949;DHT22;14848;50.954;6.642;2022-09-12T16:01:12;25.90;99.90
15949;DHT22;14848;50.954;6.642;2022-09-12T16:03:38;25.90;99.90
15949;DHT22;14848;50.954;6.642;2022-09-12T16:06:04;26.10;99.90
15949;DHT22;14848;50.954;6.642;2022-09-12T16:08:30;26.10;99.90
15949;DHT22;14848;50.954;6.642;2022-09-12T16:10:58;26.20;99.90
15949;DHT22;14848;50.954;6.642;2022-09-12T16:13:26;26.10;99.90
15949;DHT22;14848;50.954;6.642;2022-09-12T16:15:58;26.00;99.90
15949;DHT22;14848;50.954;6.642;2022-09-12T16:18:25;25.90;99.90
15949;DHT22;14848;50.954;6.642;2022-09-12T16:20:52;25.80;99.90
15949;DHT22;14848;50.954;6.642;2022-09-12T16:23:19;25.70;99.90
15949;DHT22;14848;50.954;6.642;2022-09-12T16:25:44;26.00;99.90
15949;DHT22;14848;50.954;6.642;2022-09-12T16:28:10;26.00;99.90
15949;DHT22;14848;50.954;6.642;2022-09-12T16:30:36;26.00;99.90
15949;DHT22;14848;50.954;6.642;2022-09-12T16:33:02;26.20;99.90
15949;DHT22;14848;50.954;6.642;2022-09-12T16:35:30;26.30;99.90
15949;DHT22;14848;50.954;6.642;2022-09-12T16:37:56;26.10;99.90
15949;DHT22;14848;50.954;6.642;2022-09-12T16:40:22;26.10;99.90
15949;DHT22;14848;50.954;6.642;2022-09-12T16:42:48;26.10;99.90
15949;DHT22;14848;50.954;6.642;2022-09-12T16:45:13;26.20;99.90
15949;DHT22;14848;50.954;6.642;2022-09-12T16:47:39;26.30;99.90
15949;DHT22;14848;50.954;6.642;2022-09-12T16:50:05;26.50;99.90
15949;DHT22;14848;50.954;6.642;2022-09-12T16:52:33;26.50;99.90
15949;DHT22;14848;50.954;6.642;2022-09-12T16:54:59;26.60;99.90
15949;DHT22;14848;50.954;6.642;2022-09-12T16:57:24;26.60;99.90
15949;DHT22;14848;50.954;6.642;2022-09-12T16:59:50;26.70;99.90
15949;DHT22;14848;50.954;6.642;2022-09-12T17:02:16;26.60;99.90
15949;DHT22;14848;50.954;6.642;2022-09-12T17:04:42;26.60;99.90
15949;DHT22;14848;50.954;6.642;2022-09-12T17:07:07;26.50;99.90
15949;DHT22;14848;50.954;6.642;2022-09-12T17:09:34;26.40;99.90
15949;DHT22;14848;50.954;6.642;2022-09-12T17:11:59;26.50;99.90
15949;DHT22;14848;50.954;6.642;2022-09-12T17:14:25;26.50;99.90
15949;DHT22;14848;50.954;6.642;2022-09-12T17:16:51;26.50;99.90
15949;DHT22;14848;50.954;6.642;2022-09-12T17:19:22;26.40;99.90
15949;DHT22;14848;50.954;6.642;2022-09-12T17:21:54;26.40;99.90
15949;DHT22;14848;50.954;6.642;2022-09-12T17:24:21;26.00;99.90
15949;DHT22;14848;50.954;6.642;2022-09-12T17:26:47;25.60;99.90
15949;DHT22;14848;50.954;6.642;2022-09-12T17:29:14;25.30;99.90
15949;DHT22;14848;50.954;6.642;2022-09-12T17:31:41;25.00;99.90
15949;DHT22;14848;50.954;6.642;2022-09-12T17:34:08;24.80;99.90
15949;DHT22;14848;50.954;6.642;2022-09-12T17:36:34;24.60;99.90
15949;DHT22;14848;50.954;6.642;2022-09-12T17:39:06;24.40;99.90
15949;DHT22;14848;50.954;6.642;2022-09-12T17:41:32;24.30;99.90
15949;DHT22;14848;50.954;6.642;2022-09-12T17:43:59;24.10;99.90
15949;DHT22;14848;50.954;6.642;2022-09-12T17:46:33;23.80;99.90
15949;DHT22;14848;50.954;6.642;2022-09-12T17:56:30;23.10;99.90
15949;DHT22;14848;50.954;6.642;2022-09-12T18:06:35;22.90;99.90
15949;DHT22;14848;50.954;6.642;2022-09-12T18:18:49;22.00;99.90
15949;DHT22;14848;50.954;6.642;2022-09-12T18:21:16;22.00;99.90
15949;DHT22;14848;50.954;6.642;2022-09-12T18:23:42;21.90;99.90
15949;DHT22;14848;50.954;6.642;2022-09-12T18:26:09;21.80;99.90
15949;DHT22;14848;50.954;6.642;2022-09-12T18:28:37;21.60;99.90
15949;DHT22;14848;50.954;6.642;2022-09-12T18:31:04;21.60;99.90
15949;DHT22;14848;50.954;6.642;2022-09-12T18:33:33;21.40;99.90
15949;DHT22;14848;50.954;6.642;2022-09-12T18:36:07;21.30;99.90
15949;DHT22;14848;50.954;6.642;2022-09-12T18:38:33;21.20;99.90
15949;DHT22;14848;50.954;6.642;2022-09-12T18:41:07;21.10;99.90
15949;DHT22;14848;50.954;6.642;2022-09-12T18:43:33;21.00;99.90
15949;DHT22;14848;50.954;6.642;2022-09-12T18:46:10;20.90;99.90
15949;DHT22;14848;50.954;6.642;2022-09-12T18:48:37;20.80;99.90
15949;DHT22;14848;50.954;6.642;2022-09-12T18:51:10;20.60;99.90
15949;DHT22;14848;50.954;6.642;2022-09-12T18:53:37;20.60;99.90
15949;DHT22;14848;50.954;6.642;2022-09-12T18:56:08;20.50;99.90
15949;DHT22;14848;50.954;6.642;2022-09-12T18:58:38;20.50;99.90
15949;DHT22;14848;50.954;6.642;2022-09-12T19:01:13;20.40;99.90
15949;DHT22;14848;50.954;6.642;2022-09-12T19:03:40;20.40;99.90
15949;DHT22;14848;50.954;6.642;2022-09-12T19:06:10;20.30;99.90
15949;DHT22;14848;50.954;6.642;2022-09-12T19:08:36;20.20;99.90
15949;DHT22;14848;50.954;6.642;2022-09-12T19:11:03;20.10;99.90
15949;DHT22;14848;50.954;6.642;2022-09-12T19:13:30;20.00;99.90
15949;DHT22;14848;50.954;6.642;2022-09-12T19:15:56;19.90;99.90
15949;DHT22;14848;50.954;6.642;2022-09-12T19:18:21;19.90;99.90
15949;DHT22;14848;50.954;6.642;2022-09-12T19:20:51;19.80;99.90
15949;DHT22;14848;50.954;6.642;2022-09-12T19:23:17;19.80;99.90
15949;DHT22;14848;50.954;6.642;2022-09-12T19:25:43;19.80;99.90
15949;DHT22;14848;50.954;6.642;2022-09-12T19:28:10;19.80;99.90
15949;DHT22;14848;50.954;6.642;2022-09-12T19:30:36;19.80;99.90
15949;DHT22;14848;50.954;6.642;2022-09-12T19:33:02;19.80;99.90
15949;DHT22;14848;50.954;6.642;2022-09-12T19:35:27;19.70;99.90
15949;DHT22;14848;50.954;6.642;2022-09-12T19:37:53;19.70;99.90
15949;DHT22;14848;50.954;6.642;2022-09-12T19:40:19;19.60;99.90
15949;DHT22;14848;50.954;6.642;2022-09-12T19:42:44;19.60;99.90
15949;DHT22;14848;50.954;6.642;2022-09-12T19:45:10;19.50;99.90
15949;DHT22;14848;50.954;6.642;2022-09-12T19:47:36;19.40;99.90
15949;DHT22;14848;50.954;6.642;2022-09-12T19:50:02;19.40;99.90
15949;DHT22;14848;50.954;6.642;2022-09-12T19:52:27;19.40;99.90
15949;DHT22;14848;50.954;6.642;2022-09-12T19:54:53;19.30;99.90
15949;DHT22;14848;50.954;6.642;2022-09-12T19:57:19;19.40;99.90
15949;DHT22;14848;50.954;6.642;2022-09-12T19:59:44;19.30;99.90
15949;DHT22;14848;50.954;6.642;2022-09-12T20:02:10;19.30;99.90
15949;DHT22;14848;50.954;6.642;2022-09-12T20:04:36;19.30;99.90
15949;DHT22;14848;50.954;6.642;2022-09-12T20:07:03;19.20;99.90
15949;DHT22;14848;50.954;6.642;2022-09-12T20:09:29;19.40;99.90
15949;DHT22;14848;50.954;6.642;2022-09-12T20:11:54;19.40;99.90
15949;DHT22;14848;50.954;6.642;2022-09-12T20:14:20;19.50;99.90
15949;DHT22;14848;50.954;6.642;2022-09-12T20:16:46;19.50;99.90
15949;DHT22;14848;50.954;6.642;2022-09-12T20:19:12;19.50;99.90
15949;DHT22;14848;50.954;6.642;2022-09-12T20:21:38;19.50;99.90
15949;DHT22;14848;50.954;6.642;2022-09-12T20:24:07;19.50;99.90
15949;DHT22;14848;50.954;6.642;2022-09-12T20:26:34;19.40;99.90
15949;DHT22;14848;50.954;6.642;2022-09-12T20:29:01;19.40;99.90
15949;DHT22;14848;50.954;6.642;2022-09-12T20:31:27;19.50;99.90
15949;DHT22;14848;50.954;6.642;2022-09-12T20:33:53;19.50;99.90
15949;DHT22;14848;50.954;6.642;2022-09-12T20:36:19;19.50;99.90
15949;DHT22;14848;50.954;6.642;2022-09-12T20:38:51;19.40;99.90
15949;DHT22;14848;50.954;6.642;2022-09-12T20:41:18;19.40;99.90
15949;DHT22;14848;50.954;6.642;2022-09-12T20:43:44;19.40;99.90
15949;DHT22;14848;50.954;6.642;2022-09-12T20:46:12;19.60;99.90
15949;DHT22;14848;50.954;6.642;2022-09-12T20:48:38;19.30;99.90
15949;DHT22;14848;50.954;6.642;2022-09-12T20:51:05;19.30;99.90
15949;DHT22;14848;50.954;6.642;2022-09-12T20:53:31;19.20;99.90